createdAt,value
2022-10-29T00:01:25.358Z,78.93
2022-10-29T00:03:52.290Z,79.35
2022-10-29T00:06:19.038Z,78.82
2022-10-29T00:08:45.903Z,78.46
2022-10-29T00:11:18.436Z,77.92
2022-10-29T00:13:46.111Z,78.24
2022-10-29T00:16:18.845Z,78.22
2022-10-29T00:18:45.881Z,77.80
2022-10-29T00:21:18.390Z,77.76
2022-10-29T00:23:48.427Z,77.72
2022-10-29T00:26:16.109Z,77.29
2022-10-29T00:28:43.142Z,77.77
2022-10-29T00:31:15.673Z,78.24
2022-10-29T00:33:47.719Z,78.37
2022-10-29T00:36:17.087Z,78.55
2022-10-29T00:38:53.855Z,78.67
2022-10-29T00:41:23.380Z,78.37
2022-10-29T00:43:52.506Z,78.31
2022-10-29T00:46:30.624Z,78.46
2022-10-29T00:49:01.044Z,78.74
2022-10-29T00:51:28.847Z,78.50
2022-10-29T00:54:05.184Z,78.36
2022-10-29T00:56:35.562Z,78.50
2022-10-29T00:59:03.138Z,78.43
2022-10-29T01:01:32.247Z,77.65
2022-10-29T01:04:00.242Z,77.86
2022-10-29T01:06:28.589Z,77.42
2022-10-29T01:08:55.226Z,76.81
2022-10-29T01:11:57.322Z,77.29
2022-10-29T01:14:54.389Z,77.58
2022-10-29T01:17:33.051Z,78.05
2022-10-29T01:20:47.853Z,78.45
2022-10-29T01:23:17.405Z,77.95
2022-10-29T01:26:11.270Z,78.73
2022-10-29T01:29:02.482Z,78.72
2022-10-29T01:31:31.655Z,78.65
2022-10-29T01:34:20.039Z,78.24
2022-10-29T01:37:18.363Z,77.79
2022-10-29T01:39:50.102Z,77.77
2022-10-29T01:42:54.004Z,77.65
2022-10-29T01:45:28.178Z,76.88
2022-10-29T01:48:07.286Z,77.05
2022-10-29T01:50:34.281Z,77.76
2022-10-29T01:53:01.089Z,78.52
2022-10-29T01:55:35.926Z,78.28
2022-10-29T01:58:04.151Z,77.99
2022-10-29T02:00:40.895Z,78.03
2022-10-29T02:03:12.981Z,77.67
2022-10-29T02:05:51.473Z,77.21
2022-10-29T02:08:23.346Z,77.09
2022-10-29T02:10:54.317Z,77.37
2022-10-29T02:13:24.562Z,77.33
2022-10-29T02:15:56.868Z,77.04
2022-10-29T02:18:23.624Z,77.37
2022-10-29T02:20:50.787Z,77.64
2022-10-29T02:23:17.521Z,77.43
2022-10-29T02:25:46.611Z,77.65
2022-10-29T02:28:15.617Z,78.25
2022-10-29T02:30:42.369Z,78.00
2022-10-29T02:33:09.079Z,78.67
2022-10-29T02:35:38.127Z,78.71
2022-10-29T02:38:04.799Z,79.27
2022-10-29T02:40:31.449Z,79.34
2022-10-29T02:43:02.988Z,79.67
2022-10-29T02:45:29.769Z,80.33
2022-10-29T02:47:56.602Z,80.82
2022-10-29T02:50:25.921Z,81.01
2022-10-29T02:52:52.648Z,81.27
2022-10-29T02:55:22.034Z,81.26
2022-10-29T02:57:48.786Z,81.52
2022-10-29T03:00:15.765Z,81.34
2022-10-29T03:02:44.735Z,80.78
2022-10-29T03:05:13.605Z,80.58
2022-10-29T03:07:42.530Z,81.10
2022-10-29T03:10:11.717Z,81.08
2022-10-29T03:12:40.957Z,81.30
2022-10-29T03:15:12.627Z,81.61
2022-10-29T03:17:39.170Z,82.00
2022-10-29T03:20:06.318Z,81.58
2022-10-29T03:22:35.258Z,81.20
2022-10-29T03:25:06.772Z,80.45
2022-10-29T03:27:35.845Z,79.75
2022-10-29T03:30:05.235Z,79.18
2022-10-29T03:32:34.400Z,79.10
2022-10-29T03:35:03.495Z,78.82
2022-10-29T03:37:30.413Z,78.73
2022-10-29T03:40:01.877Z,79.01
2022-10-29T03:42:31.187Z,78.73
2022-10-29T03:45:01.703Z,78.29
2022-10-29T03:47:29.079Z,78.50
2022-10-29T03:49:55.830Z,78.99
2022-10-29T03:52:22.639Z,78.78
2022-10-29T03:54:49.464Z,78.73
2022-10-29T03:57:21.505Z,78.04
2022-10-29T03:59:52.562Z,78.26
2022-10-29T04:02:19.820Z,78.05
2022-10-29T04:04:46.636Z,78.13
2022-10-29T04:07:13.346Z,78.28
2022-10-29T04:09:42.255Z,77.97
2022-10-29T04:12:09.542Z,78.23
2022-10-29T04:14:38.974Z,78.09
2022-10-29T04:17:12.038Z,77.73
2022-10-29T04:19:38.569Z,77.68
2022-10-29T04:30:28.159Z,77.77
2022-10-29T04:32:59.237Z,77.54
2022-10-29T04:35:29.620Z,77.12
2022-10-29T04:37:58.976Z,77.16
2022-10-29T04:40:25.726Z,77.25
2022-10-29T04:42:52.637Z,76.93
2022-10-29T04:45:23.992Z,77.05
2022-10-29T04:48:04.132Z,76.79
2022-10-29T04:50:34.205Z,77.70
2022-10-29T04:53:04.920Z,77.88
2022-10-29T04:55:37.083Z,79.09
2022-10-29T04:58:09.939Z,79.67
2022-10-29T05:00:38.941Z,79.54
2022-10-29T05:03:05.804Z,79.13
2022-10-29T05:05:32.564Z,78.88
2022-10-29T05:08:02.833Z,78.79
2022-10-29T05:10:36.173Z,78.37
2022-10-29T05:13:07.115Z,77.98
2022-10-29T05:15:36.820Z,78.76
2022-10-29T05:18:09.368Z,78.66
2022-10-29T05:20:36.337Z,78.00
2022-10-29T05:23:07.793Z,78.53
2022-10-29T05:25:38.463Z,79.28
2022-10-29T05:28:09.314Z,79.14
2022-10-29T05:30:36.432Z,78.63
2022-10-29T05:33:08.808Z,77.60
2022-10-29T05:35:38.430Z,77.76
2022-10-29T05:38:09.250Z,78.31
2022-10-29T05:40:36.004Z,78.32
2022-10-29T05:43:02.692Z,79.17
2022-10-29T05:45:29.770Z,79.60
2022-10-29T05:48:02.974Z,79.09
2022-10-29T05:50:32.645Z,79.16
2022-10-29T05:53:04.324Z,79.41
2022-10-29T05:55:32.665Z,79.75
2022-10-29T05:58:06.140Z,79.30
2022-10-29T06:00:35.557Z,79.15
2022-10-29T06:03:02.623Z,79.76
2022-10-29T06:05:29.555Z,79.27
2022-10-29T06:08:00.199Z,79.00
2022-10-29T06:10:28.829Z,78.98
2022-10-29T06:12:55.487Z,78.41
2022-10-29T06:15:23.093Z,77.81
2022-10-29T06:17:50.145Z,78.13
2022-10-29T06:20:19.820Z,78.21
2022-10-29T06:22:57.118Z,77.77
2022-10-29T06:25:27.597Z,77.18
2022-10-29T06:28:07.521Z,77.49
2022-10-29T06:30:37.022Z,76.83
2022-10-29T06:33:04.754Z,76.89
2022-10-29T06:35:31.857Z,76.82
2022-10-29T06:38:09.266Z,77.33
2022-10-29T06:40:43.818Z,77.25
2022-10-29T06:43:12.799Z,78.40
2022-10-29T06:45:42.020Z,79.28
2022-10-29T06:48:14.607Z,80.10
2022-10-29T06:50:44.437Z,80.46
2022-10-29T06:53:14.918Z,80.37
2022-10-29T06:55:41.723Z,79.35
2022-10-29T06:58:14.879Z,78.53
2022-10-29T07:00:46.946Z,78.70
2022-10-29T07:03:17.509Z,78.09
2022-10-29T07:05:47.336Z,78.94
2022-10-29T07:08:18.692Z,78.89
2022-10-29T07:10:54.354Z,78.44
2022-10-29T07:13:36.568Z,78.27
2022-10-29T07:16:03.339Z,78.49
2022-10-29T07:18:34.657Z,79.23
2022-10-29T07:21:05.185Z,80.02
2022-10-29T07:23:34.498Z,80.71
2022-10-29T07:26:03.386Z,80.53
2022-10-29T07:29:37.519Z,80.03
2022-10-29T07:32:30.414Z,78.73
2022-10-29T07:35:17.619Z,79.50
2022-10-29T07:37:44.322Z,79.61
2022-10-29T07:40:18.645Z,79.13
2022-10-29T07:42:51.599Z,78.70
2022-10-29T07:45:20.797Z,78.80
2022-10-29T07:48:03.284Z,77.88
2022-10-29T07:50:34.597Z,78.28
2022-10-29T07:53:07.034Z,77.48
2022-10-29T07:55:35.947Z,77.22
2022-10-29T07:58:05.414Z,77.94
2022-10-29T08:00:37.979Z,77.01
2022-10-29T08:03:05.792Z,77.06
2022-10-29T08:05:56.331Z,77.39
2022-10-29T08:08:23.544Z,78.28
2022-10-29T08:10:50.275Z,78.05
2022-10-29T08:13:19.237Z,77.75
2022-10-29T08:16:17.991Z,77.96
2022-10-29T08:19:10.414Z,78.94
2022-10-29T08:22:02.556Z,78.20
2022-10-29T08:26:47.836Z,77.33
2022-10-29T08:28:30.410Z,77.40
2022-10-29T08:35:05.797Z,78.08
2022-10-29T08:42:03.618Z,77.15
2022-10-29T08:44:56.069Z,77.61
2022-10-29T08:47:33.441Z,77.43
2022-10-29T08:50:14.562Z,77.16
2022-10-29T08:52:53.319Z,76.88
2022-10-29T08:55:36.718Z,77.43
2022-10-29T08:58:40.429Z,77.94
2022-10-29T09:01:11.575Z,77.46
2022-10-29T09:03:45.900Z,77.11
2022-10-29T09:06:17.756Z,76.98
2022-10-29T09:08:59.462Z,76.21
2022-10-29T09:11:35.912Z,75.43
2022-10-29T09:14:17.266Z,75.11
2022-10-29T09:16:47.806Z,74.66
2022-10-29T09:19:52.969Z,74.53
2022-10-29T09:22:25.342Z,73.41
2022-10-29T09:25:12.223Z,73.00
2022-10-29T09:28:02.610Z,74.25
2022-10-29T09:30:33.546Z,72.56
2022-10-29T09:33:05.152Z,73.59
2022-10-29T09:35:39.332Z,74.08
2022-10-29T09:38:36.836Z,73.27
2022-10-29T09:41:15.768Z,73.38
2022-10-29T09:43:47.795Z,73.54
2022-10-29T09:46:46.698Z,73.66
2022-10-29T09:49:44.869Z,74.34
2022-10-29T09:52:21.809Z,74.89
2022-10-29T09:54:57.564Z,75.13
2022-10-29T09:57:29.593Z,75.24
2022-10-29T09:59:59.094Z,74.58
2022-10-29T10:02:39.006Z,73.75
2022-10-29T10:05:18.558Z,72.94
2022-10-29T10:08:04.434Z,72.68
2022-10-29T10:10:31.908Z,73.24
2022-10-29T10:13:10.744Z,73.41
2022-10-29T10:15:55.517Z,73.81
2022-10-29T10:18:33.855Z,74.14
2022-10-29T10:21:00.619Z,74.54
2022-10-29T10:23:34.331Z,73.49
2022-10-29T10:26:05.294Z,73.32
2022-10-29T10:28:34.760Z,72.82
2022-10-29T10:31:04.402Z,72.25
2022-10-29T10:33:35.442Z,71.85
2022-10-29T10:36:14.440Z,71.88
2022-10-29T10:38:50.340Z,71.91
2022-10-29T10:41:31.203Z,71.14
2022-10-29T10:44:05.257Z,72.05
2022-10-29T10:46:40.376Z,72.12
2022-10-29T10:49:15.170Z,73.38
2022-10-29T10:51:52.183Z,72.75
2022-10-29T10:54:34.319Z,73.32
2022-10-29T10:57:28.415Z,73.85
2022-10-29T11:00:06.546Z,74.73
2022-10-29T11:03:11.869Z,73.98
2022-10-29T11:05:46.541Z,73.39
2022-10-29T11:08:39.558Z,71.55
2022-10-29T11:11:25.028Z,72.41
2022-10-29T11:13:55.306Z,73.13
2022-10-29T11:16:41.119Z,72.71
2022-10-29T11:19:31.303Z,72.59
2022-10-29T11:22:13.265Z,71.53
2022-10-29T11:24:47.512Z,70.89
2022-10-29T11:27:45.326Z,70.45
2022-10-29T11:30:16.466Z,69.47
2022-10-29T11:33:17.394Z,68.50
2022-10-29T11:36:01.581Z,68.11
2022-10-29T11:38:42.801Z,69.09
2022-10-29T11:41:47.726Z,67.79
2022-10-29T11:44:29.126Z,69.12
2022-10-29T11:47:05.579Z,69.49
2022-10-29T11:50:06.846Z,69.57
2022-10-29T11:52:57.259Z,69.39
2022-10-29T11:55:33.910Z,69.63
2022-10-29T11:58:22.263Z,69.07
2022-10-29T12:00:54.427Z,67.63
2022-10-29T12:04:01.508Z,67.79
2022-10-29T12:06:55.002Z,67.15
2022-10-29T12:09:24.173Z,66.57
2022-10-29T12:12:09.800Z,66.43
2022-10-29T12:14:48.154Z,65.08
2022-10-29T12:17:23.184Z,66.91
2022-10-29T12:20:17.593Z,66.64
2022-10-29T12:23:12.003Z,64.47
2022-10-29T12:26:12.506Z,65.17
2022-10-29T12:29:00.422Z,64.97
2022-10-29T12:31:30.967Z,65.80
2022-10-29T12:34:33.796Z,64.61
2022-10-29T12:37:22.621Z,64.24
2022-10-29T12:39:59.861Z,64.65
2022-10-29T12:42:30.496Z,65.37
2022-10-29T12:45:21.594Z,65.47
2022-10-29T12:48:00.561Z,65.24
2022-10-29T12:50:45.668Z,65.85
2022-10-29T12:53:24.112Z,65.86
2022-10-29T12:55:54.205Z,66.63
2022-10-29T12:58:45.197Z,67.17
2022-10-29T13:01:43.837Z,67.63
2022-10-29T13:04:25.955Z,67.39
2022-10-29T13:09:48.509Z,67.01
2022-10-29T13:13:06.463Z,66.09
2022-10-29T13:15:43.924Z,66.11
2022-10-29T13:18:22.951Z,65.26
2022-10-29T13:20:52.326Z,65.68
2022-10-29T13:23:22.133Z,65.13
2022-10-29T13:25:56.593Z,63.73
2022-10-29T13:28:25.654Z,65.25
2022-10-29T13:31:12.522Z,64.17
2022-10-29T13:33:41.416Z,64.42
2022-10-29T13:36:16.348Z,63.86
2022-10-29T13:39:05.114Z,65.77
2022-10-29T13:41:42.889Z,67.14
2022-10-29T13:44:26.246Z,66.95
2022-10-29T13:47:10.598Z,67.20
2022-10-29T13:49:37.580Z,68.30
2022-10-29T13:52:06.804Z,68.17
2022-10-29T13:54:47.007Z,68.30
2022-10-29T13:57:25.240Z,68.16
2022-10-29T14:00:16.213Z,68.96
2022-10-29T14:02:45.192Z,69.15
2022-10-29T14:05:14.787Z,69.77
2022-10-29T14:07:59.270Z,69.85
2022-10-29T14:11:01.002Z,69.98
2022-10-29T14:13:57.008Z,69.41
2022-10-29T14:20:35.863Z,68.74
2022-10-29T14:23:11.208Z,68.43
2022-10-29T14:25:42.870Z,68.99
2022-10-29T14:28:37.166Z,69.61
2022-10-29T14:31:12.326Z,70.37
2022-10-29T14:33:59.153Z,71.29
2022-10-29T14:36:43.791Z,71.99
2022-10-29T14:39:28.823Z,71.82
2022-10-29T14:42:11.823Z,71.45
2022-10-29T14:44:39.554Z,72.08
2022-10-29T14:47:13.966Z,72.17
2022-10-29T14:49:45.906Z,72.00
2022-10-29T14:52:28.220Z,71.48
2022-10-29T14:55:04.976Z,71.05
2022-10-29T14:57:35.877Z,70.85
2022-10-29T15:00:05.497Z,70.82
2022-10-29T15:02:39.922Z,70.98
2022-10-29T15:05:45.895Z,70.76
2022-10-29T15:08:19.031Z,70.21
2022-10-29T15:10:53.990Z,70.65
2022-10-29T15:13:27.900Z,70.56
2022-10-29T15:15:59.309Z,69.96
2022-10-29T15:18:31.494Z,70.29
2022-10-29T15:21:00.607Z,70.71
2022-10-29T15:23:35.502Z,70.86
2022-10-29T15:26:07.573Z,70.92
2022-10-29T15:28:44.449Z,70.76
2022-10-29T15:31:24.366Z,70.61
2022-10-29T15:33:57.310Z,70.92
2022-10-29T15:36:26.614Z,71.51
2022-10-29T15:39:17.678Z,71.28
2022-10-29T15:41:48.000Z,71.37
2022-10-29T15:44:35.477Z,71.35
2022-10-29T15:47:17.150Z,71.57
2022-10-29T15:49:46.471Z,72.05
2022-10-29T15:52:16.710Z,72.76
2022-10-29T15:54:49.095Z,73.66
2022-10-29T15:57:18.542Z,73.60
2022-10-29T15:59:55.800Z,73.93
2022-10-29T16:02:25.401Z,74.20
2022-10-29T16:04:54.352Z,74.53
2022-10-29T16:07:21.049Z,74.75
2022-10-29T16:09:50.601Z,74.95
2022-10-29T16:12:20.213Z,75.48
2022-10-29T16:14:52.265Z,75.72
2022-10-29T16:17:30.989Z,75.86
2022-10-29T16:20:00.476Z,75.51
2022-10-29T16:22:30.173Z,74.89
2022-10-29T16:24:59.659Z,74.98
2022-10-29T16:27:28.929Z,74.47
2022-10-29T16:29:56.704Z,74.48
2022-10-29T16:32:26.774Z,74.13
2022-10-29T16:34:59.199Z,74.18
2022-10-29T16:37:43.746Z,74.39
2022-10-29T16:40:14.402Z,74.84
2022-10-29T16:42:44.819Z,75.27
2022-10-29T16:45:18.778Z,75.21
2022-10-29T16:47:45.781Z,75.72
2022-10-29T16:50:24.088Z,75.79
2022-10-29T16:53:00.715Z,75.82
2022-10-29T16:55:35.964Z,75.47
2022-10-29T16:58:02.743Z,75.54
2022-10-29T17:01:05.418Z,75.34
2022-10-29T17:03:35.426Z,75.50
2022-10-29T17:06:04.554Z,75.17
2022-10-29T17:08:37.036Z,74.77
2022-10-29T17:11:06.131Z,74.91
2022-10-29T17:13:34.551Z,75.03
2022-10-29T17:16:04.584Z,75.34
2022-10-29T17:18:32.486Z,75.95
2022-10-29T17:21:00.392Z,76.65
2022-10-29T17:23:34.692Z,76.57
2022-10-29T17:26:01.968Z,76.72
2022-10-29T17:28:29.085Z,76.23
2022-10-29T17:30:57.971Z,75.80
2022-10-29T17:33:30.293Z,75.53
2022-10-29T17:36:04.327Z,75.86
2022-10-29T17:38:31.231Z,76.15
2022-10-29T17:41:04.323Z,76.66
2022-10-29T17:43:33.384Z,76.90
2022-10-29T17:46:06.493Z,76.87
2022-10-29T17:48:40.375Z,76.94
2022-10-29T17:51:10.846Z,76.97
2022-10-29T17:53:38.936Z,76.84
2022-10-29T17:56:06.323Z,76.98
2022-10-29T17:58:32.975Z,76.42
2022-10-29T18:01:04.834Z,76.29
2022-10-29T18:03:33.299Z,76.27
2022-10-29T18:06:01.955Z,76.43
2022-10-29T18:08:32.075Z,76.56
2022-10-29T18:11:07.531Z,76.76
2022-10-29T18:13:39.308Z,76.44
2022-10-29T18:16:06.321Z,76.26
2022-10-29T18:18:54.396Z,76.48
2022-10-29T18:21:30.661Z,76.70
2022-10-29T18:23:57.511Z,76.56
2022-10-29T18:26:34.756Z,76.79
2022-10-29T18:29:12.048Z,76.81
2022-10-29T18:31:42.197Z,77.07
2022-10-29T18:34:09.569Z,77.17
2022-10-29T18:36:36.265Z,77.73
2022-10-29T18:39:04.870Z,78.03
2022-10-29T18:41:31.818Z,78.08
2022-10-29T18:44:06.136Z,77.67
2022-10-29T18:46:33.995Z,77.43
2022-10-29T18:49:01.064Z,76.88
2022-10-29T18:51:34.043Z,76.87
2022-10-29T18:54:00.781Z,76.52
2022-10-29T18:56:31.144Z,77.37
2022-10-29T18:59:01.132Z,78.00
2022-10-29T19:01:32.174Z,78.40
2022-10-29T19:04:05.282Z,78.66
2022-10-29T19:06:34.240Z,78.80
2022-10-29T19:09:05.127Z,78.93
2022-10-29T19:11:31.953Z,78.74
2022-10-29T19:14:00.637Z,78.26
2022-10-29T19:16:47.129Z,77.93
2022-10-29T19:19:21.279Z,78.07
2022-10-29T19:21:53.510Z,77.88
2022-10-29T19:24:24.657Z,77.81
2022-10-29T19:26:51.401Z,76.99
2022-10-29T19:29:20.623Z,76.71
2022-10-29T19:32:00.881Z,76.47
2022-10-29T19:34:56.998Z,75.75
2022-10-29T19:37:26.489Z,75.47
2022-10-29T19:39:56.492Z,75.13
2022-10-29T19:42:23.172Z,74.64
2022-10-29T19:44:53.590Z,74.77
2022-10-29T19:47:26.383Z,74.26
2022-10-29T19:49:53.101Z,74.06
2022-10-29T19:52:19.858Z,73.40
2022-10-29T19:54:53.765Z,73.49
2022-10-29T19:57:20.479Z,73.43
2022-10-29T19:59:49.555Z,73.53
2022-10-29T20:02:16.508Z,73.21
2022-10-29T20:04:43.934Z,73.03
2022-10-29T20:07:13.314Z,72.27
2022-10-29T20:09:39.861Z,72.47
2022-10-29T20:12:10.340Z,72.88
2022-10-29T20:14:38.457Z,72.38
2022-10-29T20:17:09.911Z,72.87
2022-10-29T20:19:36.649Z,72.74
2022-10-29T20:22:03.480Z,72.52
2022-10-29T20:24:32.245Z,72.23
2022-10-29T20:26:58.955Z,72.22
2022-10-29T20:29:27.827Z,72.10
2022-10-29T20:31:56.662Z,72.18
2022-10-29T20:34:28.280Z,72.76
2022-10-29T20:36:55.165Z,72.40
2022-10-29T20:39:32.407Z,72.46
2022-10-29T20:42:02.303Z,72.21
2022-10-29T20:44:29.207Z,72.13
2022-10-29T20:46:58.863Z,72.08
2022-10-29T20:49:30.011Z,72.18
2022-10-29T20:51:56.751Z,71.97
2022-10-29T20:54:23.446Z,71.72
2022-10-29T20:56:53.081Z,71.66
2022-10-29T20:59:19.903Z,71.72
2022-10-29T21:01:49.936Z,71.51
2022-10-29T21:04:20.909Z,71.32
2022-10-29T21:06:49.936Z,71.56
2022-10-29T21:09:19.153Z,71.64
2022-10-29T21:11:45.838Z,71.39
2022-10-29T21:14:12.633Z,71.25
2022-10-29T21:16:41.414Z,71.14
2022-10-29T21:19:08.201Z,70.95
2022-10-29T21:21:38.034Z,71.33
2022-10-29T21:24:07.382Z,70.98
2022-10-29T21:26:36.283Z,71.21
2022-10-29T21:29:03.216Z,70.97
2022-10-29T21:31:43.084Z,70.74
2022-10-29T21:34:13.032Z,70.93
2022-10-29T21:36:39.685Z,70.76
2022-10-29T21:39:11.151Z,71.15
2022-10-29T21:41:37.921Z,70.92
2022-10-29T21:44:04.869Z,70.72
2022-10-29T21:46:34.100Z,70.84
2022-10-29T21:49:03.438Z,70.83
2022-10-29T21:51:30.159Z,70.70
2022-10-29T21:53:59.011Z,70.74
2022-10-29T21:59:24.741Z,70.99
2022-10-29T22:01:51.452Z,71.21
2022-10-29T22:04:18.267Z,71.05
2022-10-29T22:06:45.089Z,71.11
2022-10-29T22:09:11.938Z,70.98
2022-10-29T22:11:38.607Z,70.99
2022-10-29T22:14:07.988Z,71.18
2022-10-29T22:16:34.679Z,70.91
2022-10-29T22:19:03.922Z,71.01
2022-10-29T22:21:33.402Z,70.87
2022-10-29T22:24:02.779Z,70.59
2022-10-29T22:26:32.161Z,71.11
2022-10-29T22:29:01.119Z,71.32
2022-10-29T22:31:27.850Z,71.93
2022-10-29T22:33:54.693Z,72.02
2022-10-29T22:36:23.507Z,71.92
2022-10-29T22:38:54.438Z,71.73
2022-10-29T22:41:23.731Z,71.59
2022-10-29T22:43:55.468Z,72.23
2022-10-29T22:46:22.770Z,72.31
2022-10-29T22:48:52.057Z,72.39
2022-10-29T22:51:21.845Z,72.50
2022-10-29T22:53:51.494Z,73.15
2022-10-29T22:56:19.391Z,73.23
2022-10-29T22:58:46.351Z,73.71
2022-10-29T23:01:17.545Z,73.74
2022-10-29T23:03:50.363Z,74.08
2022-10-29T23:06:19.569Z,74.00
2022-10-29T23:08:48.203Z,73.58
2022-10-29T23:11:19.729Z,73.41
2022-10-29T23:13:47.579Z,73.11
2022-10-29T23:16:15.857Z,73.51
2022-10-29T23:18:42.562Z,73.63
2022-10-29T23:21:09.538Z,73.75
2022-10-29T23:23:40.696Z,74.27
2022-10-29T23:26:11.425Z,74.44
2022-10-29T23:28:39.605Z,74.51
2022-10-29T23:31:10.265Z,73.85
2022-10-29T23:33:39.565Z,73.71
2022-10-29T23:36:09.351Z,73.36
2022-10-29T23:38:38.179Z,73.94
2022-10-29T23:41:05.180Z,74.63
2022-10-29T23:43:38.816Z,75.12
2022-10-29T23:46:07.649Z,76.53
2022-10-29T23:48:37.422Z,77.04
2022-10-29T23:51:08.832Z,77.40
2022-10-29T23:53:35.994Z,78.21
2022-10-29T23:56:03.090Z,78.80
2022-10-29T23:58:29.738Z,79.00
